sensor_id;sensor_type;location;lat;lon;timestamp;pressure;altitude;pressure_sealevel;temperature;humidity
43119;BME280;28729;49.838;8.650;2022-07-21T00:00:06;99915.28;;;20.96;100.00
43119;BME280;28729;49.838;8.650;2022-07-21T00:04:10;99923.50;;;20.92;100.00
43119;BME280;28729;49.838;8.650;2022-07-21T00:08:12;99913.75;;;20.89;100.00
43119;BME280;28729;49.838;8.650;2022-07-21T00:12:14;99922.47;;;20.88;100.00
43119;BME280;28729;49.838;8.650;2022-07-21T00:16:16;99920.81;;;20.87;100.00
43119;BME280;28729;49.838;8.650;2022-07-21T00:20:25;99935.16;;;20.85;100.00
43119;BME280;28729;49.838;8.650;2022-07-21T00:24:27;99930.28;;;20.77;100.00
43119;BME280;28729;49.838;8.650;2022-07-21T00:28:29;99933.91;;;20.78;100.00
43119;BME280;28729;49.838;8.650;2022-07-21T00:32:32;99949.91;;;20.77;100.00
43119;BME280;28729;49.838;8.650;2022-07-21T00:36:36;99956.13;;;20.74;100.00
43119;BME280;28729;49.838;8.650;2022-07-21T00:40:38;99963.47;;;20.70;100.00
43119;BME280;28729;49.838;8.650;2022-07-21T00:44:40;99968.88;;;20.66;100.00
43119;BME280;28729;49.838;8.650;2022-07-21T00:48:41;99969.22;;;20.65;100.00
43119;BME280;28729;49.838;8.650;2022-07-21T00:52:44;99972.63;;;20.62;100.00
43119;BME280;28729;49.838;8.650;2022-07-21T00:56:46;99981.66;;;20.59;100.00
43119;BME280;28729;49.838;8.650;2022-07-21T01:00:48;100001.38;;;20.54;100.00
43119;BME280;28729;49.838;8.650;2022-07-21T01:04:50;99992.81;;;20.45;100.00
43119;BME280;28729;49.838;8.650;2022-07-21T01:08:53;99992.94;;;20.40;100.00
43119;BME280;28729;49.838;8.650;2022-07-21T01:12:55;99997.16;;;20.37;100.00
43119;BME280;28729;49.838;8.650;2022-07-21T01:16:57;100002.88;;;20.46;100.00
43119;BME280;28729;49.838;8.650;2022-07-21T01:21:03;99995.75;;;20.54;100.00
43119;BME280;28729;49.838;8.650;2022-07-21T01:25:06;99983.13;;;20.56;100.00
43119;BME280;28729;49.838;8.650;2022-07-21T01:29:08;99991.91;;;20.49;100.00
43119;BME280;28729;49.838;8.650;2022-07-21T01:33:11;99988.72;;;20.56;100.00
43119;BME280;28729;49.838;8.650;2022-07-21T01:37:13;100002.09;;;20.59;100.00
43119;BME280;28729;49.838;8.650;2022-07-21T01:41:14;100001.13;;;20.64;100.00
43119;BME280;28729;49.838;8.650;2022-07-21T01:45:31;100006.63;;;20.69;100.00
43119;BME280;28729;49.838;8.650;2022-07-21T01:49:33;100006.00;;;20.72;100.00
43119;BME280;28729;49.838;8.650;2022-07-21T01:53:35;99999.47;;;20.77;100.00
43119;BME280;28729;49.838;8.650;2022-07-21T01:57:37;100000.31;;;20.77;100.00
43119;BME280;28729;49.838;8.650;2022-07-21T02:01:39;99998.84;;;20.80;100.00
43119;BME280;28729;49.838;8.650;2022-07-21T02:05:41;100007.75;;;20.82;100.00
43119;BME280;28729;49.838;8.650;2022-07-21T02:09:43;100018.66;;;20.83;100.00
43119;BME280;28729;49.838;8.650;2022-07-21T02:13:45;100028.06;;;20.87;100.00
43119;BME280;28729;49.838;8.650;2022-07-21T02:17:47;100028.69;;;20.84;100.00
43119;BME280;28729;49.838;8.650;2022-07-21T02:21:48;100024.97;;;20.89;100.00
43119;BME280;28729;49.838;8.650;2022-07-21T02:25:50;100028.50;;;20.94;100.00
43119;BME280;28729;49.838;8.650;2022-07-21T02:29:53;100037.53;;;20.91;100.00
43119;BME280;28729;49.838;8.650;2022-07-21T02:33:55;100027.44;;;20.90;100.00
43119;BME280;28729;49.838;8.650;2022-07-21T02:37:56;100035.56;;;20.92;100.00
43119;BME280;28729;49.838;8.650;2022-07-21T02:41:58;100030.78;;;20.92;100.00
43119;BME280;28729;49.838;8.650;2022-07-21T02:46:00;100046.94;;;20.96;100.00
43119;BME280;28729;49.838;8.650;2022-07-21T02:50:02;100050.09;;;20.94;100.00
43119;BME280;28729;49.838;8.650;2022-07-21T02:54:04;100059.59;;;20.93;100.00
43119;BME280;28729;49.838;8.650;2022-07-21T02:58:44;100056.50;;;20.94;100.00
43119;BME280;28729;49.838;8.650;2022-07-21T03:02:38;100073.50;;;20.84;100.00
43119;BME280;28729;49.838;8.650;2022-07-21T03:06:40;100084.09;;;20.87;100.00
43119;BME280;28729;49.838;8.650;2022-07-21T03:10:43;100079.31;;;20.88;100.00
43119;BME280;28729;49.838;8.650;2022-07-21T03:14:45;100073.94;;;20.91;100.00
43119;BME280;28729;49.838;8.650;2022-07-21T03:18:47;100084.63;;;20.89;100.00
43119;BME280;28729;49.838;8.650;2022-07-21T03:22:49;100084.63;;;20.89;100.00
43119;BME280;28729;49.838;8.650;2022-07-21T03:26:50;100087.72;;;20.88;100.00
43119;BME280;28729;49.838;8.650;2022-07-21T03:30:52;100092.19;;;20.89;100.00
43119;BME280;28729;49.838;8.650;2022-07-21T03:34:53;100090.31;;;20.84;100.00
43119;BME280;28729;49.838;8.650;2022-07-21T03:38:55;100101.03;;;20.82;100.00
43119;BME280;28729;49.838;8.650;2022-07-21T03:42:59;100092.72;;;20.77;100.00
43119;BME280;28729;49.838;8.650;2022-07-21T03:47:01;100097.50;;;20.77;100.00
43119;BME280;28729;49.838;8.650;2022-07-21T03:51:04;100104.75;;;20.78;100.00
43119;BME280;28729;49.838;8.650;2022-07-21T03:55:06;100105.03;;;20.76;100.00
43119;BME280;28729;49.838;8.650;2022-07-21T03:59:15;100104.75;;;20.78;100.00
43119;BME280;28729;49.838;8.650;2022-07-21T04:03:17;100099.34;;;20.81;100.00
43119;BME280;28729;49.838;8.650;2022-07-21T04:07:19;100106.00;;;20.85;100.00
43119;BME280;28729;49.838;8.650;2022-07-21T04:11:20;100114.09;;;20.87;100.00
43119;BME280;28729;49.838;8.650;2022-07-21T04:15:23;100115.22;;;20.86;100.00
43119;BME280;28729;49.838;8.650;2022-07-21T04:19:25;100117.31;;;20.80;100.00
43119;BME280;28729;49.838;8.650;2022-07-21T04:23:26;100116.16;;;20.81;100.00
43119;BME280;28729;49.838;8.650;2022-07-21T04:27:28;100116.16;;;20.81;100.00
43119;BME280;28729;49.838;8.650;2022-07-21T04:31:29;100117.50;;;20.84;100.00
43119;BME280;28729;49.838;8.650;2022-07-21T04:35:32;100126.44;;;20.86;100.00
43119;BME280;28729;49.838;8.650;2022-07-21T04:39:34;100121.34;;;20.88;100.00
43119;BME280;28729;49.838;8.650;2022-07-21T04:43:35;100112.94;;;20.88;100.00
43119;BME280;28729;49.838;8.650;2022-07-21T04:51:45;100116.47;;;20.80;100.00
43119;BME280;28729;49.838;8.650;2022-07-21T04:55:47;100122.88;;;20.66;100.00
43119;BME280;28729;49.838;8.650;2022-07-21T04:59:48;100136.56;;;20.54;100.00
43119;BME280;28729;49.838;8.650;2022-07-21T05:03:50;100135.28;;;20.46;100.00
43119;BME280;28729;49.838;8.650;2022-07-21T05:07:52;100148.53;;;20.41;100.00
43119;BME280;28729;49.838;8.650;2022-07-21T05:11:53;100144.19;;;20.48;100.00
43119;BME280;28729;49.838;8.650;2022-07-21T05:15:55;100147.25;;;20.66;100.00
43119;BME280;28729;49.838;8.650;2022-07-21T05:19:58;100147.16;;;20.85;100.00
43119;BME280;28729;49.838;8.650;2022-07-21T05:24:00;100141.56;;;20.99;100.00
43119;BME280;28729;49.838;8.650;2022-07-21T05:28:02;100146.56;;;21.02;100.00
43119;BME280;28729;49.838;8.650;2022-07-21T05:32:04;100142.69;;;21.11;100.00
43119;BME280;28729;49.838;8.650;2022-07-21T05:36:06;100150.91;;;21.22;100.00
43119;BME280;28729;49.838;8.650;2022-07-21T05:40:09;100151.84;;;21.31;100.00
43119;BME280;28729;49.838;8.650;2022-07-21T05:44:10;100146.75;;;21.47;100.00
43119;BME280;28729;49.838;8.650;2022-07-21T05:48:12;100144.47;;;21.85;100.00
43119;BME280;28729;49.838;8.650;2022-07-21T05:52:14;100140.97;;;22.02;100.00
43119;BME280;28729;49.838;8.650;2022-07-21T05:56:15;100136.38;;;22.06;100.00
43119;BME280;28729;49.838;8.650;2022-07-21T06:00:17;100142.25;;;21.96;100.00
43119;BME280;28729;49.838;8.650;2022-07-21T06:04:19;100145.09;;;21.82;100.00
43119;BME280;28729;49.838;8.650;2022-07-21T06:08:22;100151.78;;;21.95;100.00
43119;BME280;28729;49.838;8.650;2022-07-21T06:12:24;100152.97;;;22.16;100.00
43119;BME280;28729;49.838;8.650;2022-07-21T06:16:26;100157.97;;;22.19;100.00
43119;BME280;28729;49.838;8.650;2022-07-21T06:20:27;100176.97;;;22.22;100.00
43119;BME280;28729;49.838;8.650;2022-07-21T06:24:29;100168.69;;;22.17;100.00
43119;BME280;28729;49.838;8.650;2022-07-21T06:28:31;100175.56;;;22.34;100.00
43119;BME280;28729;49.838;8.650;2022-07-21T06:32:32;100181.22;;;22.42;100.00
43119;BME280;28729;49.838;8.650;2022-07-21T06:36:35;100169.13;;;22.33;100.00
43119;BME280;28729;49.838;8.650;2022-07-21T06:40:36;100177.34;;;22.29;100.00
43119;BME280;28729;49.838;8.650;2022-07-21T06:44:38;100174.28;;;22.40;100.00
43119;BME280;28729;49.838;8.650;2022-07-21T06:48:40;100181.09;;;22.47;100.00
43119;BME280;28729;49.838;8.650;2022-07-21T06:52:42;100181.22;;;22.42;100.00
43119;BME280;28729;49.838;8.650;2022-07-21T06:56:43;100187.06;;;22.23;100.00
43119;BME280;28729;49.838;8.650;2022-07-21T07:00:46;100178.31;;;22.25;100.00
43119;BME280;28729;49.838;8.650;2022-07-21T07:04:48;100188.59;;;22.29;100.00
43119;BME280;28729;49.838;8.650;2022-07-21T07:08:50;100190.75;;;22.55;99.13
43119;BME280;28729;49.838;8.650;2022-07-21T07:12:52;100190.72;;;23.09;97.37
43119;BME280;28729;49.838;8.650;2022-07-21T07:17:18;100200.63;;;23.55;92.54
43119;BME280;28729;49.838;8.650;2022-07-21T07:21:21;100208.53;;;23.35;92.06
43119;BME280;28729;49.838;8.650;2022-07-21T07:25:24;100194.41;;;23.18;90.23
43119;BME280;28729;49.838;8.650;2022-07-21T07:29:32;100197.59;;;23.34;89.65
43119;BME280;28729;49.838;8.650;2022-07-21T07:33:34;100197.78;;;23.46;91.15
43119;BME280;28729;49.838;8.650;2022-07-21T07:37:38;100202.53;;;23.77;89.55
43119;BME280;28729;49.838;8.650;2022-07-21T07:41:40;100203.81;;;23.79;87.59
43119;BME280;28729;49.838;8.650;2022-07-21T07:45:41;100219.88;;;23.79;87.19
43119;BME280;28729;49.838;8.650;2022-07-21T07:49:43;100215.22;;;23.65;85.82
43119;BME280;28729;49.838;8.650;2022-07-21T07:53:45;100210.00;;;23.33;85.96
43119;BME280;28729;49.838;8.650;2022-07-21T07:57:46;100204.31;;;23.73;83.55
43119;BME280;28729;49.838;8.650;2022-07-21T08:01:48;100194.06;;;24.64;78.72
43119;BME280;28729;49.838;8.650;2022-07-21T08:05:50;100200.97;;;25.31;76.62
43119;BME280;28729;49.838;8.650;2022-07-21T08:09:52;100204.25;;;25.41;76.15
43119;BME280;28729;49.838;8.650;2022-07-21T08:14:14;100209.72;;;24.91;76.45
43119;BME280;28729;49.838;8.650;2022-07-21T08:18:17;100204.34;;;24.51;78.81
43119;BME280;28729;49.838;8.650;2022-07-21T08:22:18;100211.81;;;24.47;80.55
43119;BME280;28729;49.838;8.650;2022-07-21T08:26:23;100191.56;;;24.62;76.14
43119;BME280;28729;49.838;8.650;2022-07-21T08:30:24;100192.72;;;24.70;77.78
43119;BME280;28729;49.838;8.650;2022-07-21T08:34:31;100189.72;;;24.75;77.95
43119;BME280;28729;49.838;8.650;2022-07-21T08:38:33;100199.13;;;24.88;75.22
43119;BME280;28729;49.838;8.650;2022-07-21T08:42:36;100200.31;;;24.87;76.48
43119;BME280;28729;49.838;8.650;2022-07-21T08:46:41;100191.50;;;24.88;77.25
43119;BME280;28729;49.838;8.650;2022-07-21T08:50:43;100195.00;;;24.85;76.92
43119;BME280;28729;49.838;8.650;2022-07-21T08:54:45;100190.22;;;25.24;75.58
43119;BME280;28729;49.838;8.650;2022-07-21T08:58:46;100192.22;;;25.23;72.98
43119;BME280;28729;49.838;8.650;2022-07-21T09:02:49;100185.00;;;25.43;73.12
43119;BME280;28729;49.838;8.650;2022-07-21T09:06:59;100181.91;;;25.57;70.47
43119;BME280;28729;49.838;8.650;2022-07-21T09:15:19;100191.66;;;24.83;72.65
43119;BME280;28729;49.838;8.650;2022-07-21T09:19:24;100196.41;;;24.44;74.57
43119;BME280;28729;49.838;8.650;2022-07-21T09:23:26;100196.56;;;24.30;75.03
43119;BME280;28729;49.838;8.650;2022-07-21T09:27:27;100188.97;;;24.14;74.93
43119;BME280;28729;49.838;8.650;2022-07-21T09:31:29;100184.81;;;24.02;74.95
43119;BME280;28729;49.838;8.650;2022-07-21T09:35:31;100191.59;;;23.93;76.15
43119;BME280;28729;49.838;8.650;2022-07-21T09:39:53;100182.97;;;24.15;75.41
43119;BME280;28729;49.838;8.650;2022-07-21T09:43:56;100195.09;;;24.97;72.45
43119;BME280;28729;49.838;8.650;2022-07-21T09:47:58;100179.75;;;25.24;72.11
43119;BME280;28729;49.838;8.650;2022-07-21T09:52:23;100176.22;;;26.08;68.44
43119;BME280;28729;49.838;8.650;2022-07-21T09:56:27;100179.56;;;26.76;64.29
43119;BME280;28729;49.838;8.650;2022-07-21T10:00:29;100182.47;;;27.62;61.82
43119;BME280;28729;49.838;8.650;2022-07-21T10:04:34;100184.38;;;28.11;57.34
43119;BME280;28729;49.838;8.650;2022-07-21T10:08:58;100178.63;;;28.63;54.62
43119;BME280;28729;49.838;8.650;2022-07-21T10:13:00;100168.50;;;28.62;52.07
43119;BME280;28729;49.838;8.650;2022-07-21T10:17:02;100171.50;;;28.70;52.12
43119;BME280;28729;49.838;8.650;2022-07-21T10:21:14;100172.56;;;28.49;53.12
43119;BME280;28729;49.838;8.650;2022-07-21T10:25:21;100171.34;;;28.78;50.21
43119;BME280;28729;49.838;8.650;2022-07-21T10:29:56;100175.31;;;29.05;50.34
43119;BME280;28729;49.838;8.650;2022-07-21T10:34:02;100166.50;;;29.58;48.68
43119;BME280;28729;49.838;8.650;2022-07-21T10:38:04;100149.16;;;29.79;48.40
43119;BME280;28729;49.838;8.650;2022-07-21T10:42:16;100150.66;;;29.57;47.51
43119;BME280;28729;49.838;8.650;2022-07-21T10:46:34;100144.06;;;29.69;46.13
43119;BME280;28729;49.838;8.650;2022-07-21T10:50:40;100154.84;;;29.12;48.12
43119;BME280;28729;49.838;8.650;2022-07-21T11:04:14;100151.63;;;29.14;44.20
43119;BME280;28729;49.838;8.650;2022-07-21T11:08:19;100148.28;;;29.43;44.27
43119;BME280;28729;49.838;8.650;2022-07-21T11:12:55;100147.03;;;29.09;44.21
43119;BME280;28729;49.838;8.650;2022-07-21T11:17:30;100137.00;;;28.52;44.27
43119;BME280;28729;49.838;8.650;2022-07-21T11:21:33;100140.81;;;28.44;44.38
43119;BME280;28729;49.838;8.650;2022-07-21T11:25:35;100128.41;;;27.92;43.15
43119;BME280;28729;49.838;8.650;2022-07-21T11:29:40;100122.94;;;28.55;44.02
43119;BME280;28729;49.838;8.650;2022-07-21T11:33:45;100120.78;;;29.12;42.54
43119;BME280;28729;49.838;8.650;2022-07-21T11:37:47;100118.56;;;29.57;42.23
43119;BME280;28729;49.838;8.650;2022-07-21T11:41:49;100118.66;;;29.95;42.09
43119;BME280;28729;49.838;8.650;2022-07-21T11:45:53;100112.38;;;30.06;40.73
43119;BME280;28729;49.838;8.650;2022-07-21T11:49:57;100110.22;;;29.99;40.86
43119;BME280;28729;49.838;8.650;2022-07-21T11:53:59;100105.31;;;30.19;40.38
43119;BME280;28729;49.838;8.650;2022-07-21T11:58:01;100111.69;;;30.74;39.58
43119;BME280;28729;49.838;8.650;2022-07-21T12:02:29;100107.13;;;30.47;38.35
43119;BME280;28729;49.838;8.650;2022-07-21T12:06:35;100120.66;;;29.95;38.96
43119;BME280;28729;49.838;8.650;2022-07-21T12:10:37;100109.28;;;30.76;37.30
43119;BME280;28729;49.838;8.650;2022-07-21T12:14:40;100104.88;;;29.97;38.82
43119;BME280;28729;49.838;8.650;2022-07-21T12:18:42;100104.44;;;29.76;40.25
43119;BME280;28729;49.838;8.650;2022-07-21T12:22:46;100108.25;;;30.65;38.63
43119;BME280;28729;49.838;8.650;2022-07-21T12:26:48;100090.44;;;31.41;36.67
43119;BME280;28729;49.838;8.650;2022-07-21T12:30:51;100092.94;;;32.03;35.35
43119;BME280;28729;49.838;8.650;2022-07-21T12:34:53;100097.97;;;31.56;35.84
43119;BME280;28729;49.838;8.650;2022-07-21T12:39:17;100101.34;;;30.85;36.34
43119;BME280;28729;49.838;8.650;2022-07-21T12:43:39;100109.31;;;30.14;37.13
43119;BME280;28729;49.838;8.650;2022-07-21T12:47:41;100103.19;;;29.58;38.52
43119;BME280;28729;49.838;8.650;2022-07-21T12:51:54;100101.28;;;29.62;37.93
43119;BME280;28729;49.838;8.650;2022-07-21T12:55:56;100096.91;;;29.48;38.45
43119;BME280;28729;49.838;8.650;2022-07-21T12:59:59;100099.81;;;29.52;38.46
43119;BME280;28729;49.838;8.650;2022-07-21T13:04:02;100093.06;;;31.00;37.34
43119;BME280;28729;49.838;8.650;2022-07-21T13:08:04;100099.69;;;31.91;35.81
43119;BME280;28729;49.838;8.650;2022-07-21T13:12:06;100094.19;;;31.22;36.28
43119;BME280;28729;49.838;8.650;2022-07-21T13:16:08;100088.31;;;30.61;37.34
43119;BME280;28729;49.838;8.650;2022-07-21T13:20:11;100094.44;;;29.82;37.55
43119;BME280;28729;49.838;8.650;2022-07-21T13:24:12;100080.13;;;30.60;37.19
43119;BME280;28729;49.838;8.650;2022-07-21T13:28:15;100078.41;;;32.93;34.54
43119;BME280;28729;49.838;8.650;2022-07-21T13:32:17;100066.19;;;35.03;31.66
43119;BME280;28729;49.838;8.650;2022-07-21T13:36:18;100065.91;;;36.18;28.61
43119;BME280;28729;49.838;8.650;2022-07-21T13:40:20;100071.00;;;37.52;26.76
43119;BME280;28729;49.838;8.650;2022-07-21T13:44:42;100055.16;;;38.63;26.05
43119;BME280;28729;49.838;8.650;2022-07-21T13:48:44;100049.47;;;38.83;24.93
43119;BME280;28729;49.838;8.650;2022-07-21T13:52:46;100054.56;;;37.53;25.88
43119;BME280;28729;49.838;8.650;2022-07-21T13:56:50;100047.03;;;36.24;26.50
43119;BME280;28729;49.838;8.650;2022-07-21T14:00:52;100053.53;;;34.83;28.40
43119;BME280;28729;49.838;8.650;2022-07-21T14:04:55;100045.97;;;33.92;28.93
43119;BME280;28729;49.838;8.650;2022-07-21T14:08:56;100053.16;;;32.99;30.23
43119;BME280;28729;49.838;8.650;2022-07-21T14:12:58;100052.59;;;32.38;31.13
43119;BME280;28729;49.838;8.650;2022-07-21T14:17:00;100054.31;;;31.45;32.91
43119;BME280;28729;49.838;8.650;2022-07-21T14:21:02;100057.47;;;31.13;33.23
43119;BME280;28729;49.838;8.650;2022-07-21T14:25:04;100052.72;;;30.71;34.11
43119;BME280;28729;49.838;8.650;2022-07-21T14:29:23;100054.19;;;30.61;34.29
43119;BME280;28729;49.838;8.650;2022-07-21T14:33:24;100052.53;;;30.18;34.53
43119;BME280;28729;49.838;8.650;2022-07-21T14:37:28;100059.16;;;29.64;35.64
43119;BME280;28729;49.838;8.650;2022-07-21T14:41:30;100065.09;;;29.59;35.59
43119;BME280;28729;49.838;8.650;2022-07-21T14:45:31;100044.88;;;29.80;34.84
43119;BME280;28729;49.838;8.650;2022-07-21T14:49:34;100053.31;;;29.76;34.90
43119;BME280;28729;49.838;8.650;2022-07-21T14:53:36;100051.44;;;29.64;35.64
43119;BME280;28729;49.838;8.650;2022-07-21T14:57:38;100045.53;;;29.73;35.15
43119;BME280;28729;49.838;8.650;2022-07-21T15:01:40;100040.66;;;29.54;35.60
43119;BME280;28729;49.838;8.650;2022-07-21T15:05:42;100033.50;;;29.80;35.20
43119;BME280;28729;49.838;8.650;2022-07-21T15:09:47;100033.78;;;29.94;34.99
43119;BME280;28729;49.838;8.650;2022-07-21T15:13:50;100028.06;;;29.71;35.61
43119;BME280;28729;49.838;8.650;2022-07-21T15:17:53;100026.28;;;29.27;37.06
43119;BME280;28729;49.838;8.650;2022-07-21T15:21:54;100026.69;;;28.94;37.24
43119;BME280;28729;49.838;8.650;2022-07-21T15:25:56;100028.91;;;28.85;37.14
43119;BME280;28729;49.838;8.650;2022-07-21T15:29:58;100021.75;;;28.91;37.20
43119;BME280;28729;49.838;8.650;2022-07-21T15:34:01;100019.84;;;28.95;37.87
43119;BME280;28729;49.838;8.650;2022-07-21T15:38:03;100021.91;;;29.14;37.31
43119;BME280;28729;49.838;8.650;2022-07-21T15:42:09;100017.19;;;29.57;37.35
43119;BME280;28729;49.838;8.650;2022-07-21T15:46:11;100017.81;;;29.86;37.38
43119;BME280;28729;49.838;8.650;2022-07-21T15:50:13;100022.66;;;29.85;36.40
43119;BME280;28729;49.838;8.650;2022-07-21T15:54:15;100013.38;;;29.49;36.60
43119;BME280;28729;49.838;8.650;2022-07-21T15:58:38;100021.84;;;29.11;37.40
43119;BME280;28729;49.838;8.650;2022-07-21T16:02:59;100007.69;;;28.95;37.61
43119;BME280;28729;49.838;8.650;2022-07-21T16:07:03;100011.50;;;29.18;37.29
43119;BME280;28729;49.838;8.650;2022-07-21T16:11:05;100004.78;;;29.46;36.63
43119;BME280;28729;49.838;8.650;2022-07-21T16:15:07;100008.09;;;29.87;36.13
43119;BME280;28729;49.838;8.650;2022-07-21T16:19:09;99998.81;;;30.32;35.09
43119;BME280;28729;49.838;8.650;2022-07-21T16:23:11;100001.53;;;30.25;35.45
43119;BME280;28729;49.838;8.650;2022-07-21T16:27:13;100001.44;;;29.79;35.21
43119;BME280;28729;49.838;8.650;2022-07-21T16:31:15;100005.16;;;29.44;35.41
43119;BME280;28729;49.838;8.650;2022-07-21T16:35:19;100003.81;;;29.38;36.12
43119;BME280;28729;49.838;8.650;2022-07-21T16:39:22;100007.44;;;29.19;36.80
43119;BME280;28729;49.838;8.650;2022-07-21T16:43:23;100007.28;;;28.96;36.78
43119;BME280;28729;49.838;8.650;2022-07-21T16:47:26;100009.34;;;28.64;37.33
43119;BME280;28729;49.838;8.650;2022-07-21T16:51:27;100010.81;;;28.42;37.46
43119;BME280;28729;49.838;8.650;2022-07-21T16:55:29;100016.34;;;28.23;38.39
43119;BME280;28729;49.838;8.650;2022-07-21T16:59:31;100006.94;;;28.18;38.55
43119;BME280;28729;49.838;8.650;2022-07-21T17:03:53;100013.72;;;28.30;38.94
43119;BME280;28729;49.838;8.650;2022-07-21T17:07:55;100002.50;;;28.49;38.51
43119;BME280;28729;49.838;8.650;2022-07-21T17:11:56;100005.31;;;28.49;38.55
43119;BME280;28729;49.838;8.650;2022-07-21T17:15:58;100006.44;;;28.45;39.00
43119;BME280;28729;49.838;8.650;2022-07-21T17:20:00;99995.78;;;28.26;39.35
43119;BME280;28729;49.838;8.650;2022-07-21T17:24:02;100002.91;;;28.20;39.18
43119;BME280;28729;49.838;8.650;2022-07-21T17:28:34;99996.44;;;28.67;39.10
43119;BME280;28729;49.838;8.650;2022-07-21T17:32:56;99990.59;;;28.44;38.81
43119;BME280;28729;49.838;8.650;2022-07-21T17:36:58;99997.06;;;28.28;39.19
43119;BME280;28729;49.838;8.650;2022-07-21T17:41:13;100002.66;;;28.09;39.58
43119;BME280;28729;49.838;8.650;2022-07-21T17:45:15;99998.59;;;27.94;39.93
43119;BME280;28729;49.838;8.650;2022-07-21T17:49:17;99997.47;;;27.83;40.33
43119;BME280;28729;49.838;8.650;2022-07-21T17:53:19;100006.56;;;27.76;40.27
43119;BME280;28729;49.838;8.650;2022-07-21T17:57:39;100003.31;;;27.62;40.20
43119;BME280;28729;49.838;8.650;2022-07-21T18:02:00;100015.97;;;27.52;40.62
43119;BME280;28729;49.838;8.650;2022-07-21T18:06:02;100018.63;;;27.33;41.72
43119;BME280;28729;49.838;8.650;2022-07-21T18:10:18;100019.38;;;27.17;42.05
43119;BME280;28729;49.838;8.650;2022-07-21T18:14:20;100025.13;;;27.21;41.90
43119;BME280;28729;49.838;8.650;2022-07-21T18:18:23;100018.06;;;27.15;42.44
43119;BME280;28729;49.838;8.650;2022-07-21T18:22:25;100018.53;;;27.04;42.32
43119;BME280;28729;49.838;8.650;2022-07-21T18:26:27;100020.09;;;26.90;42.68
43119;BME280;28729;49.838;8.650;2022-07-21T18:30:29;100019.63;;;26.75;42.30
43119;BME280;28729;49.838;8.650;2022-07-21T18:34:30;100016.22;;;26.57;42.85
43119;BME280;28729;49.838;8.650;2022-07-21T18:38:32;100024.88;;;26.40;43.62
43119;BME280;28729;49.838;8.650;2022-07-21T18:42:34;100028.00;;;26.26;44.07
43119;BME280;28729;49.838;8.650;2022-07-21T18:46:36;100026.59;;;26.20;43.84
43119;BME280;28729;49.838;8.650;2022-07-21T18:50:38;100029.66;;;26.15;44.39
43119;BME280;28729;49.838;8.650;2022-07-21T18:54:39;100027.97;;;26.02;45.58
43119;BME280;28729;49.838;8.650;2022-07-21T18:58:41;100025.47;;;25.88;45.62
43119;BME280;28729;49.838;8.650;2022-07-21T19:02:43;100035.38;;;25.73;45.53
43119;BME280;28729;49.838;8.650;2022-07-21T19:06:45;100034.84;;;25.59;46.66
43119;BME280;28729;49.838;8.650;2022-07-21T19:10:47;100031.47;;;25.44;47.83
43119;BME280;28729;49.838;8.650;2022-07-21T19:14:49;100040.41;;;25.26;49.81
43119;BME280;28729;49.838;8.650;2022-07-21T19:18:51;100036.50;;;25.09;52.19
43119;BME280;28729;49.838;8.650;2022-07-21T19:22:52;100043.06;;;24.92;53.14
43119;BME280;28729;49.838;8.650;2022-07-21T19:26:57;100050.63;;;24.79;53.92
43119;BME280;28729;49.838;8.650;2022-07-21T19:30:59;100056.97;;;24.68;54.19
43119;BME280;28729;49.838;8.650;2022-07-21T19:35:01;100056.53;;;24.57;55.31
43119;BME280;28729;49.838;8.650;2022-07-21T19:39:11;100062.19;;;24.48;55.67
43119;BME280;28729;49.838;8.650;2022-07-21T19:43:13;100070.66;;;24.40;56.04
43119;BME280;28729;49.838;8.650;2022-07-21T19:47:15;100077.44;;;24.30;55.70
43119;BME280;28729;49.838;8.650;2022-07-21T19:51:17;100087.44;;;24.19;57.09
43119;BME280;28729;49.838;8.650;2022-07-21T19:55:19;100085.97;;;24.04;58.48
43119;BME280;28729;49.838;8.650;2022-07-21T19:59:21;100093.41;;;23.91;59.36
43119;BME280;28729;49.838;8.650;2022-07-21T20:03:24;100111.81;;;23.80;60.60
43119;BME280;28729;49.838;8.650;2022-07-21T20:07:26;100098.69;;;23.66;59.93
43119;BME280;28729;49.838;8.650;2022-07-21T20:11:28;100113.59;;;23.58;59.75
43119;BME280;28729;49.838;8.650;2022-07-21T20:15:31;100111.59;;;23.50;60.23
43119;BME280;28729;49.838;8.650;2022-07-21T20:19:34;100111.25;;;23.43;60.70
43119;BME280;28729;49.838;8.650;2022-07-21T20:23:35;100119.84;;;23.38;61.15
43119;BME280;28729;49.838;8.650;2022-07-21T20:27:38;100120.50;;;23.35;61.01
43119;BME280;28729;49.838;8.650;2022-07-21T20:31:40;100130.41;;;23.24;62.23
43119;BME280;28729;49.838;8.650;2022-07-21T20:35:42;100121.28;;;23.09;63.08
43119;BME280;28729;49.838;8.650;2022-07-21T20:39:44;100134.97;;;23.02;63.47
43119;BME280;28729;49.838;8.650;2022-07-21T20:44:06;100140.84;;;22.92;64.72
43119;BME280;28729;49.838;8.650;2022-07-21T20:48:08;100145.28;;;22.84;65.02
43119;BME280;28729;49.838;8.650;2022-07-21T20:52:09;100150.19;;;22.70;67.65
43119;BME280;28729;49.838;8.650;2022-07-21T20:56:11;100158.41;;;22.66;68.54
43119;BME280;28729;49.838;8.650;2022-07-21T21:00:27;100160.84;;;22.59;68.98
43119;BME280;28729;49.838;8.650;2022-07-21T21:04:28;100172.75;;;22.56;69.20
43119;BME280;28729;49.838;8.650;2022-07-21T21:08:30;100177.47;;;22.47;70.62
43119;BME280;28729;49.838;8.650;2022-07-21T21:12:32;100173.91;;;22.33;71.37
43119;BME280;28729;49.838;8.650;2022-07-21T21:16:34;100184.88;;;22.20;72.83
43119;BME280;28729;49.838;8.650;2022-07-21T21:20:36;100185.59;;;22.12;74.33
43119;BME280;28729;49.838;8.650;2022-07-21T21:24:37;100186.31;;;21.95;74.49
43119;BME280;28729;49.838;8.650;2022-07-21T21:28:39;100192.16;;;21.85;74.48